sensor_id;sensor_type;location;lat;lon;timestamp;P1;durP1;ratioP1;P2;durP2;ratioP2
23117;SDS011;11728;50.624;6.014;2023-03-12T00:00:39;4.22;;;1.60;;
23117;SDS011;11728;50.624;6.014;2023-03-12T00:05:40;7.00;;;1.70;;
23117;SDS011;11728;50.624;6.014;2023-03-12T00:10:42;4.85;;;1.63;;
23117;SDS011;11728;50.624;6.014;2023-03-12T00:15:42;4.80;;;1.47;;
23117;SDS011;11728;50.624;6.014;2023-03-12T00:20:42;5.87;;;1.50;;
23117;SDS011;11728;50.624;6.014;2023-03-12T00:25:43;8.83;;;1.60;;
23117;SDS011;11728;50.624;6.014;2023-03-12T00:30:43;12.30;;;1.87;;
23117;SDS011;11728;50.624;6.014;2023-03-12T00:35:43;9.25;;;1.95;;
23117;SDS011;11728;50.624;6.014;2023-03-12T00:40:44;5.90;;;1.53;;
23117;SDS011;11728;50.624;6.014;2023-03-12T00:45:44;6.38;;;1.75;;
23117;SDS011;11728;50.624;6.014;2023-03-12T00:50:45;5.47;;;1.23;;
23117;SDS011;11728;50.624;6.014;2023-03-12T00:55:45;4.90;;;1.50;;
23117;SDS011;11728;50.624;6.014;2023-03-12T01:00:45;11.13;;;1.95;;
23117;SDS011;11728;50.624;6.014;2023-03-12T01:05:46;6.70;;;1.85;;
23117;SDS011;11728;50.624;6.014;2023-03-12T01:10:52;5.55;;;1.70;;
23117;SDS011;11728;50.624;6.014;2023-03-12T01:15:53;4.32;;;1.80;;
23117;SDS011;11728;50.624;6.014;2023-03-12T01:20:53;4.23;;;1.53;;
23117;SDS011;11728;50.624;6.014;2023-03-12T01:25:54;7.03;;;1.90;;
23117;SDS011;11728;50.624;6.014;2023-03-12T01:30:54;5.82;;;1.95;;
23117;SDS011;11728;50.624;6.014;2023-03-12T01:35:54;6.10;;;1.73;;
23117;SDS011;11728;50.624;6.014;2023-03-12T01:40:55;4.72;;;1.75;;
23117;SDS011;11728;50.624;6.014;2023-03-12T01:51:46;5.35;;;1.70;;
23117;SDS011;11728;50.624;6.014;2023-03-12T01:56:51;8.13;;;1.90;;
23117;SDS011;11728;50.624;6.014;2023-03-12T02:01:53;9.00;;;2.17;;
23117;SDS011;11728;50.624;6.014;2023-03-12T02:07:07;8.15;;;1.83;;
23117;SDS011;11728;50.624;6.014;2023-03-12T02:12:09;7.38;;;1.80;;
23117;SDS011;11728;50.624;6.014;2023-03-12T02:17:10;6.03;;;1.80;;
23117;SDS011;11728;50.624;6.014;2023-03-12T02:22:12;6.00;;;1.92;;
23117;SDS011;11728;50.624;6.014;2023-03-12T02:27:13;9.70;;;2.00;;
23117;SDS011;11728;50.624;6.014;2023-03-12T02:32:17;6.28;;;2.00;;
23117;SDS011;11728;50.624;6.014;2023-03-12T02:37:22;5.25;;;2.03;;
23117;SDS011;11728;50.624;6.014;2023-03-12T02:42:22;5.53;;;1.80;;
23117;SDS011;11728;50.624;6.014;2023-03-12T02:47:23;8.77;;;2.00;;
23117;SDS011;11728;50.624;6.014;2023-03-12T02:52:24;8.55;;;2.05;;
23117;SDS011;11728;50.624;6.014;2023-03-12T02:57:24;5.15;;;2.03;;
23117;SDS011;11728;50.624;6.014;2023-03-12T03:02:24;9.50;;;2.67;;
23117;SDS011;11728;50.624;6.014;2023-03-12T03:07:25;7.10;;;2.50;;
23117;SDS011;11728;50.624;6.014;2023-03-12T03:12:25;8.67;;;2.20;;
23117;SDS011;11728;50.624;6.014;2023-03-12T03:17:25;7.90;;;2.50;;
23117;SDS011;11728;50.624;6.014;2023-03-12T03:22:26;9.60;;;2.90;;
23117;SDS011;11728;50.624;6.014;2023-03-12T03:27:27;9.25;;;2.63;;
23117;SDS011;11728;50.624;6.014;2023-03-12T03:32:27;6.70;;;2.40;;
23117;SDS011;11728;50.624;6.014;2023-03-12T03:37:28;7.22;;;2.17;;
23117;SDS011;11728;50.624;6.014;2023-03-12T03:42:28;8.60;;;2.38;;
23117;SDS011;11728;50.624;6.014;2023-03-12T03:47:28;10.47;;;2.97;;
23117;SDS011;11728;50.624;6.014;2023-03-12T03:52:29;5.13;;;2.50;;
23117;SDS011;11728;50.624;6.014;2023-03-12T03:57:30;5.90;;;2.38;;
23117;SDS011;11728;50.624;6.014;2023-03-12T04:02:30;9.20;;;2.45;;
23117;SDS011;11728;50.624;6.014;2023-03-12T04:07:30;6.20;;;2.30;;
23117;SDS011;11728;50.624;6.014;2023-03-12T04:12:31;7.90;;;2.93;;
23117;SDS011;11728;50.624;6.014;2023-03-12T04:17:31;5.13;;;2.43;;
23117;SDS011;11728;50.624;6.014;2023-03-12T04:22:32;5.68;;;1.98;;
23117;SDS011;11728;50.624;6.014;2023-03-12T04:27:33;5.38;;;2.20;;
23117;SDS011;11728;50.624;6.014;2023-03-12T04:32:34;4.82;;;2.00;;
23117;SDS011;11728;50.624;6.014;2023-03-12T04:37:34;6.80;;;2.13;;
23117;SDS011;11728;50.624;6.014;2023-03-12T04:42:35;6.47;;;2.10;;
23117;SDS011;11728;50.624;6.014;2023-03-12T04:47:35;5.18;;;2.20;;
23117;SDS011;11728;50.624;6.014;2023-03-12T04:52:36;4.60;;;2.17;;
23117;SDS011;11728;50.624;6.014;2023-03-12T04:57:36;5.07;;;2.03;;
23117;SDS011;11728;50.624;6.014;2023-03-12T05:02:36;5.97;;;2.00;;
23117;SDS011;11728;50.624;6.014;2023-03-12T05:07:37;7.53;;;2.05;;
23117;SDS011;11728;50.624;6.014;2023-03-12T05:12:37;4.20;;;2.20;;
23117;SDS011;11728;50.624;6.014;2023-03-12T05:17:37;3.22;;;1.80;;
23117;SDS011;11728;50.624;6.014;2023-03-12T05:22:38;5.17;;;2.00;;
23117;SDS011;11728;50.624;6.014;2023-03-12T05:27:39;6.35;;;2.67;;
23117;SDS011;11728;50.624;6.014;2023-03-12T05:32:39;4.57;;;2.20;;
23117;SDS011;11728;50.624;6.014;2023-03-12T05:37:39;5.90;;;2.70;;
23117;SDS011;11728;50.624;6.014;2023-03-12T05:42:41;4.53;;;2.22;;
23117;SDS011;11728;50.624;6.014;2023-03-12T05:47:42;5.15;;;2.60;;
23117;SDS011;11728;50.624;6.014;2023-03-12T05:52:42;5.43;;;2.40;;
23117;SDS011;11728;50.624;6.014;2023-03-12T05:57:42;5.40;;;2.60;;
23117;SDS011;11728;50.624;6.014;2023-03-12T06:02:43;4.55;;;2.35;;
23117;SDS011;11728;50.624;6.014;2023-03-12T06:07:43;7.00;;;3.00;;
23117;SDS011;11728;50.624;6.014;2023-03-12T06:12:43;4.83;;;2.83;;
23117;SDS011;11728;50.624;6.014;2023-03-12T06:17:44;6.72;;;2.50;;
23117;SDS011;11728;50.624;6.014;2023-03-12T06:22:44;4.97;;;2.33;;
23117;SDS011;11728;50.624;6.014;2023-03-12T06:27:45;5.33;;;2.90;;
23117;SDS011;11728;50.624;6.014;2023-03-12T06:32:45;3.83;;;2.65;;
23117;SDS011;11728;50.624;6.014;2023-03-12T06:37:45;4.15;;;2.92;;
23117;SDS011;11728;50.624;6.014;2023-03-12T06:42:46;3.87;;;2.87;;
23117;SDS011;11728;50.624;6.014;2023-03-12T06:47:46;4.10;;;2.80;;
23117;SDS011;11728;50.624;6.014;2023-03-12T06:52:46;4.97;;;3.25;;
23117;SDS011;11728;50.624;6.014;2023-03-12T06:57:47;3.83;;;2.80;;
23117;SDS011;11728;50.624;6.014;2023-03-12T07:02:47;5.35;;;2.97;;
23117;SDS011;11728;50.624;6.014;2023-03-12T07:07:47;4.30;;;2.88;;
23117;SDS011;11728;50.624;6.014;2023-03-12T07:12:48;5.88;;;3.08;;
23117;SDS011;11728;50.624;6.014;2023-03-12T07:17:49;4.83;;;3.00;;
23117;SDS011;11728;50.624;6.014;2023-03-12T07:22:49;5.07;;;3.00;;
23117;SDS011;11728;50.624;6.014;2023-03-12T07:27:50;3.83;;;2.95;;
23117;SDS011;11728;50.624;6.014;2023-03-12T07:32:50;5.03;;;3.00;;
23117;SDS011;11728;50.624;6.014;2023-03-12T07:37:50;5.70;;;3.20;;
23117;SDS011;11728;50.624;6.014;2023-03-12T07:42:51;4.67;;;3.40;;
23117;SDS011;11728;50.624;6.014;2023-03-12T07:47:51;5.60;;;3.13;;
23117;SDS011;11728;50.624;6.014;2023-03-12T07:52:52;5.43;;;3.10;;
23117;SDS011;11728;50.624;6.014;2023-03-12T07:57:52;22.77;;;9.70;;
23117;SDS011;11728;50.624;6.014;2023-03-12T08:02:55;6.80;;;3.35;;
23117;SDS011;11728;50.624;6.014;2023-03-12T08:07:56;3.78;;;2.80;;
23117;SDS011;11728;50.624;6.014;2023-03-12T08:12:57;4.85;;;2.75;;
23117;SDS011;11728;50.624;6.014;2023-03-12T08:17:57;4.70;;;2.30;;
23117;SDS011;11728;50.624;6.014;2023-03-12T08:22:58;3.28;;;1.90;;
23117;SDS011;11728;50.624;6.014;2023-03-12T08:27:58;5.28;;;3.78;;
23117;SDS011;11728;50.624;6.014;2023-03-12T08:32:59;6.13;;;3.08;;
23117;SDS011;11728;50.624;6.014;2023-03-12T08:38:02;12.02;;;4.90;;
23117;SDS011;11728;50.624;6.014;2023-03-12T08:43:02;10.98;;;4.57;;
23117;SDS011;11728;50.624;6.014;2023-03-12T08:48:04;12.98;;;4.70;;
23117;SDS011;11728;50.624;6.014;2023-03-12T08:53:05;9.93;;;4.03;;
23117;SDS011;11728;50.624;6.014;2023-03-12T08:58:06;6.25;;;2.70;;
23117;SDS011;11728;50.624;6.014;2023-03-12T09:03:07;7.82;;;2.83;;
23117;SDS011;11728;50.624;6.014;2023-03-12T09:08:11;5.38;;;2.35;;
23117;SDS011;11728;50.624;6.014;2023-03-12T09:13:11;6.70;;;3.00;;
23117;SDS011;11728;50.624;6.014;2023-03-12T09:18:11;7.47;;;2.90;;
23117;SDS011;11728;50.624;6.014;2023-03-12T09:23:12;7.53;;;2.90;;
23117;SDS011;11728;50.624;6.014;2023-03-12T09:28:12;8.23;;;3.53;;
23117;SDS011;11728;50.624;6.014;2023-03-12T09:33:13;9.00;;;3.75;;
23117;SDS011;11728;50.624;6.014;2023-03-12T09:38:14;10.40;;;4.18;;
23117;SDS011;11728;50.624;6.014;2023-03-12T09:43:17;12.40;;;3.80;;
23117;SDS011;11728;50.624;6.014;2023-03-12T09:48:27;11.35;;;3.55;;
23117;SDS011;11728;50.624;6.014;2023-03-12T09:53:36;6.60;;;3.03;;
23117;SDS011;11728;50.624;6.014;2023-03-12T09:58:41;6.97;;;4.00;;
23117;SDS011;11728;50.624;6.014;2023-03-12T10:04:00;11.95;;;4.03;;
23117;SDS011;11728;50.624;6.014;2023-03-12T10:09:06;14.20;;;4.50;;
23117;SDS011;11728;50.624;6.014;2023-03-12T10:25:38;13.50;;;6.05;;
23117;SDS011;11728;50.624;6.014;2023-03-12T10:30:58;16.42;;;5.00;;
23117;SDS011;11728;50.624;6.014;2023-03-12T10:36:08;12.23;;;5.28;;
23117;SDS011;11728;50.624;6.014;2023-03-12T10:41:13;11.35;;;5.03;;
23117;SDS011;11728;50.624;6.014;2023-03-12T10:46:25;14.45;;;5.00;;
23117;SDS011;11728;50.624;6.014;2023-03-12T10:57:16;12.85;;;4.75;;
23117;SDS011;11728;50.624;6.014;2023-03-12T11:02:30;10.82;;;5.38;;
23117;SDS011;11728;50.624;6.014;2023-03-12T11:07:38;14.15;;;4.75;;
23117;SDS011;11728;50.624;6.014;2023-03-12T11:12:56;14.32;;;3.97;;
23117;SDS011;11728;50.624;6.014;2023-03-12T11:23:25;10.20;;;3.47;;
23117;SDS011;11728;50.624;6.014;2023-03-12T11:28:38;12.05;;;3.72;;
23117;SDS011;11728;50.624;6.014;2023-03-12T11:33:41;8.85;;;3.25;;
23117;SDS011;11728;50.624;6.014;2023-03-12T11:38:43;9.70;;;2.60;;
23117;SDS011;11728;50.624;6.014;2023-03-12T11:54:53;9.65;;;2.75;;
23117;SDS011;11728;50.624;6.014;2023-03-12T12:00:12;14.40;;;3.30;;
23117;SDS011;11728;50.624;6.014;2023-03-12T12:10:34;10.38;;;2.78;;
23117;SDS011;11728;50.624;6.014;2023-03-12T12:21:44;15.00;;;3.33;;
23117;SDS011;11728;50.624;6.014;2023-03-12T12:27:01;19.05;;;3.88;;
23117;SDS011;11728;50.624;6.014;2023-03-12T12:32:07;12.48;;;3.20;;
23117;SDS011;11728;50.624;6.014;2023-03-12T12:42:34;16.08;;;3.47;;
23117;SDS011;11728;50.624;6.014;2023-03-12T12:47:48;16.67;;;3.27;;
23117;SDS011;11728;50.624;6.014;2023-03-12T12:53:14;18.48;;;3.70;;
23117;SDS011;11728;50.624;6.014;2023-03-12T12:58:22;20.38;;;4.30;;
23117;SDS011;11728;50.624;6.014;2023-03-12T13:03:39;16.73;;;4.30;;
23117;SDS011;11728;50.624;6.014;2023-03-12T13:13:46;22.10;;;4.70;;
23117;SDS011;11728;50.624;6.014;2023-03-12T13:18:56;20.35;;;3.92;;
23117;SDS011;11728;50.624;6.014;2023-03-12T13:24:34;12.30;;;3.15;;
23117;SDS011;11728;50.624;6.014;2023-03-12T13:29:46;16.25;;;3.47;;
23117;SDS011;11728;50.624;6.014;2023-03-12T13:34:46;14.43;;;3.33;;
23117;SDS011;11728;50.624;6.014;2023-03-12T13:39:46;12.43;;;3.30;;
23117;SDS011;11728;50.624;6.014;2023-03-12T13:44:47;18.27;;;4.35;;
23117;SDS011;11728;50.624;6.014;2023-03-12T13:55:14;18.48;;;3.72;;
23117;SDS011;11728;50.624;6.014;2023-03-12T14:00:28;19.55;;;4.32;;
23117;SDS011;11728;50.624;6.014;2023-03-12T14:05:33;17.25;;;3.70;;
23117;SDS011;11728;50.624;6.014;2023-03-12T14:21:16;24.67;;;3.42;;
23117;SDS011;11728;50.624;6.014;2023-03-12T14:26:22;20.15;;;3.80;;
23117;SDS011;11728;50.624;6.014;2023-03-12T14:31:26;20.13;;;4.10;;
23117;SDS011;11728;50.624;6.014;2023-03-12T14:36:37;18.73;;;3.80;;
23117;SDS011;11728;50.624;6.014;2023-03-12T14:41:42;20.77;;;4.38;;
23117;SDS011;11728;50.624;6.014;2023-03-12T14:46:54;21.63;;;3.55;;
23117;SDS011;11728;50.624;6.014;2023-03-12T14:51:59;24.48;;;4.85;;
23117;SDS011;11728;50.624;6.014;2023-03-12T14:56:59;17.93;;;3.53;;
23117;SDS011;11728;50.624;6.014;2023-03-12T15:02:00;19.45;;;4.85;;
23117;SDS011;11728;50.624;6.014;2023-03-12T15:07:10;24.10;;;3.92;;
23117;SDS011;11728;50.624;6.014;2023-03-12T15:12:21;24.25;;;4.53;;
23117;SDS011;11728;50.624;6.014;2023-03-12T15:17:23;21.27;;;4.40;;
23117;SDS011;11728;50.624;6.014;2023-03-12T15:22:28;25.38;;;4.57;;
23117;SDS011;11728;50.624;6.014;2023-03-12T15:32:28;21.33;;;4.35;;
23117;SDS011;11728;50.624;6.014;2023-03-12T15:37:31;21.05;;;4.30;;
23117;SDS011;11728;50.624;6.014;2023-03-12T15:42:38;25.42;;;4.50;;
23117;SDS011;11728;50.624;6.014;2023-03-12T15:47:42;24.00;;;4.40;;
23117;SDS011;11728;50.624;6.014;2023-03-12T15:53:00;23.90;;;5.07;;
23117;SDS011;11728;50.624;6.014;2023-03-12T15:58:24;25.08;;;5.18;;
23117;SDS011;11728;50.624;6.014;2023-03-12T16:03:32;19.33;;;5.05;;
23117;SDS011;11728;50.624;6.014;2023-03-12T16:08:35;23.97;;;4.73;;
23117;SDS011;11728;50.624;6.014;2023-03-12T16:13:39;21.55;;;4.82;;
23117;SDS011;11728;50.624;6.014;2023-03-12T16:18:41;22.33;;;4.50;;
23117;SDS011;11728;50.624;6.014;2023-03-12T16:23:42;24.05;;;4.53;;
23117;SDS011;11728;50.624;6.014;2023-03-12T16:28:42;21.33;;;4.43;;
23117;SDS011;11728;50.624;6.014;2023-03-12T16:33:43;23.48;;;4.65;;
23117;SDS011;11728;50.624;6.014;2023-03-12T16:38:44;20.10;;;4.15;;
23117;SDS011;11728;50.624;6.014;2023-03-12T16:43:45;22.67;;;3.97;;
23117;SDS011;11728;50.624;6.014;2023-03-12T16:48:52;25.70;;;4.15;;
23117;SDS011;11728;50.624;6.014;2023-03-12T16:53:53;20.53;;;3.90;;
23117;SDS011;11728;50.624;6.014;2023-03-12T16:58:55;21.63;;;3.65;;
23117;SDS011;11728;50.624;6.014;2023-03-12T17:04:01;28.35;;;5.57;;
23117;SDS011;11728;50.624;6.014;2023-03-12T17:09:02;24.27;;;4.57;;
23117;SDS011;11728;50.624;6.014;2023-03-12T17:14:04;18.90;;;5.05;;
23117;SDS011;11728;50.624;6.014;2023-03-12T17:19:25;26.38;;;4.80;;
23117;SDS011;11728;50.624;6.014;2023-03-12T17:24:26;21.13;;;4.63;;
23117;SDS011;11728;50.624;6.014;2023-03-12T17:29:27;23.75;;;4.10;;
23117;SDS011;11728;50.624;6.014;2023-03-12T17:34:27;20.45;;;4.30;;
23117;SDS011;11728;50.624;6.014;2023-03-12T17:39:28;21.30;;;4.80;;
23117;SDS011;11728;50.624;6.014;2023-03-12T17:44:31;20.98;;;4.22;;
23117;SDS011;11728;50.624;6.014;2023-03-12T17:49:33;21.48;;;3.92;;
23117;SDS011;11728;50.624;6.014;2023-03-12T17:54:34;20.00;;;4.47;;
23117;SDS011;11728;50.624;6.014;2023-03-12T17:59:35;19.13;;;4.35;;
23117;SDS011;11728;50.624;6.014;2023-03-12T18:04:35;15.97;;;4.00;;
23117;SDS011;11728;50.624;6.014;2023-03-12T18:09:35;21.87;;;4.50;;
23117;SDS011;11728;50.624;6.014;2023-03-12T18:14:36;20.57;;;4.53;;
23117;SDS011;11728;50.624;6.014;2023-03-12T18:19:36;17.97;;;4.33;;
23117;SDS011;11728;50.624;6.014;2023-03-12T18:24:36;18.50;;;4.47;;
23117;SDS011;11728;50.624;6.014;2023-03-12T18:29:37;20.70;;;4.20;;
23117;SDS011;11728;50.624;6.014;2023-03-12T18:34:39;26.95;;;4.63;;
23117;SDS011;11728;50.624;6.014;2023-03-12T18:39:41;21.33;;;5.07;;
23117;SDS011;11728;50.624;6.014;2023-03-12T18:44:41;19.40;;;3.90;;
23117;SDS011;11728;50.624;6.014;2023-03-12T18:49:42;24.80;;;5.30;;
23117;SDS011;11728;50.624;6.014;2023-03-12T18:54:42;25.02;;;5.10;;
23117;SDS011;11728;50.624;6.014;2023-03-12T18:59:43;19.47;;;4.73;;
23117;SDS011;11728;50.624;6.014;2023-03-12T19:04:45;20.27;;;4.68;;
23117;SDS011;11728;50.624;6.014;2023-03-12T19:09:45;21.67;;;6.18;;
23117;SDS011;11728;50.624;6.014;2023-03-12T19:14:45;26.80;;;5.90;;
23117;SDS011;11728;50.624;6.014;2023-03-12T19:19:46;22.37;;;6.33;;
23117;SDS011;11728;50.624;6.014;2023-03-12T19:24:46;21.37;;;4.80;;
23117;SDS011;11728;50.624;6.014;2023-03-12T19:29:46;21.77;;;5.72;;
23117;SDS011;11728;50.624;6.014;2023-03-12T19:34:47;21.23;;;6.97;;
23117;SDS011;11728;50.624;6.014;2023-03-12T19:39:47;21.98;;;4.47;;
23117;SDS011;11728;50.624;6.014;2023-03-12T19:44:48;28.30;;;5.13;;
23117;SDS011;11728;50.624;6.014;2023-03-12T19:49:50;26.70;;;5.60;;
23117;SDS011;11728;50.624;6.014;2023-03-12T19:54:52;20.25;;;4.80;;
23117;SDS011;11728;50.624;6.014;2023-03-12T19:59:53;24.80;;;5.07;;
23117;SDS011;11728;50.624;6.014;2023-03-12T20:04:53;21.38;;;4.72;;
23117;SDS011;11728;50.624;6.014;2023-03-12T20:09:54;23.10;;;4.70;;
23117;SDS011;11728;50.624;6.014;2023-03-12T20:14:55;23.15;;;5.13;;
23117;SDS011;11728;50.624;6.014;2023-03-12T20:19:55;21.50;;;4.47;;
23117;SDS011;11728;50.624;6.014;2023-03-12T20:24:57;18.85;;;4.70;;
23117;SDS011;11728;50.624;6.014;2023-03-12T20:29:57;19.65;;;3.63;;
23117;SDS011;11728;50.624;6.014;2023-03-12T20:34:57;25.70;;;5.75;;
23117;SDS011;11728;50.624;6.014;2023-03-12T20:39:58;27.50;;;9.02;;
23117;SDS011;11728;50.624;6.014;2023-03-12T20:44:58;39.33;;;12.83;;
23117;SDS011;11728;50.624;6.014;2023-03-12T20:49:59;32.67;;;10.32;;
23117;SDS011;11728;50.624;6.014;2023-03-12T20:54:59;28.20;;;5.77;;
23117;SDS011;11728;50.624;6.014;2023-03-12T21:00:00;21.70;;;9.15;;
23117;SDS011;11728;50.624;6.014;2023-03-12T21:05:00;18.27;;;4.93;;
23117;SDS011;11728;50.624;6.014;2023-03-12T21:10:01;23.52;;;4.43;;
23117;SDS011;11728;50.624;6.014;2023-03-12T21:15:01;23.30;;;5.07;;
23117;SDS011;11728;50.624;6.014;2023-03-12T21:20:06;18.88;;;3.92;;
23117;SDS011;11728;50.624;6.014;2023-03-12T21:25:16;18.45;;;4.85;;
23117;SDS011;11728;50.624;6.014;2023-03-12T21:30:16;18.50;;;4.90;;
23117;SDS011;11728;50.624;6.014;2023-03-12T21:35:17;18.75;;;4.22;;
23117;SDS011;11728;50.624;6.014;2023-03-12T21:40:18;17.85;;;3.75;;
23117;SDS011;11728;50.624;6.014;2023-03-12T21:45:19;25.13;;;4.07;;
23117;SDS011;11728;50.624;6.014;2023-03-12T21:50:20;13.38;;;3.45;;
23117;SDS011;11728;50.624;6.014;2023-03-12T21:55:21;18.40;;;3.90;;
23117;SDS011;11728;50.624;6.014;2023-03-12T22:00:21;17.07;;;3.67;;
23117;SDS011;11728;50.624;6.014;2023-03-12T22:05:22;19.02;;;3.85;;
23117;SDS011;11728;50.624;6.014;2023-03-12T22:10:22;15.40;;;3.65;;
23117;SDS011;11728;50.624;6.014;2023-03-12T22:15:23;17.30;;;3.17;;
23117;SDS011;11728;50.624;6.014;2023-03-12T22:20:23;17.03;;;3.27;;
23117;SDS011;11728;50.624;6.014;2023-03-12T22:25:23;18.20;;;3.85;;
23117;SDS011;11728;50.624;6.014;2023-03-12T22:30:24;28.40;;;3.90;;
23117;SDS011;11728;50.624;6.014;2023-03-12T22:35:24;18.80;;;4.43;;
23117;SDS011;11728;50.624;6.014;2023-03-12T22:40:26;18.08;;;4.13;;
23117;SDS011;11728;50.624;6.014;2023-03-12T22:45:26;23.63;;;3.30;;
23117;SDS011;11728;50.624;6.014;2023-03-12T22:50:26;16.37;;;3.40;;
23117;SDS011;11728;50.624;6.014;2023-03-12T22:55:27;22.77;;;4.30;;
23117;SDS011;11728;50.624;6.014;2023-03-12T23:00:29;26.35;;;3.55;;
23117;SDS011;11728;50.624;6.014;2023-03-12T23:05:29;15.73;;;3.60;;
23117;SDS011;11728;50.624;6.014;2023-03-12T23:10:29;15.50;;;3.03;;
23117;SDS011;11728;50.624;6.014;2023-03-12T23:15:30;20.45;;;3.13;;
23117;SDS011;11728;50.624;6.014;2023-03-12T23:20:30;19.93;;;3.23;;
23117;SDS011;11728;50.624;6.014;2023-03-12T23:25:30;15.63;;;3.17;;
23117;SDS011;11728;50.624;6.014;2023-03-12T23:30:31;13.23;;;3.10;;
23117;SDS011;11728;50.624;6.014;2023-03-12T23:35:33;14.68;;;3.50;;
23117;SDS011;11728;50.624;6.014;2023-03-12T23:40:34;17.00;;;3.90;;
23117;SDS011;11728;50.624;6.014;2023-03-12T23:45:34;23.95;;;3.78;;
23117;SDS011;11728;50.624;6.014;2023-03-12T23:50:35;20.27;;;3.58;;
23117;SDS011;11728;50.624;6.014;2023-03-12T23:55:35;14.65;;;3.58;;
